createdAt,value
2023-03-11T00:00:09.265Z,10.43
2023-03-11T00:03:14.265Z,9.90
2023-03-11T00:06:17.726Z,10.75
2023-03-11T00:09:21.111Z,9.50
2023-03-11T00:12:24.530Z,9.03
2023-03-11T00:15:28.809Z,11.77
2023-03-11T00:18:32.262Z,9.13
2023-03-11T00:21:35.824Z,10.30
2023-03-11T00:24:39.203Z,11.68
2023-03-11T00:27:42.593Z,9.97
2023-03-11T00:30:47.418Z,12.27
2023-03-11T00:33:50.892Z,11.50
2023-03-11T00:36:54.315Z,11.18
2023-03-11T00:39:57.697Z,9.18
2023-03-11T00:43:01.385Z,12.00
2023-03-11T00:46:06.267Z,11.27
2023-03-11T00:49:09.820Z,11.57
2023-03-11T00:52:13.241Z,10.57
2023-03-11T00:55:20.073Z,15.10
2023-03-11T00:58:27.383Z,10.20
2023-03-11T01:01:32.592Z,9.93
2023-03-11T01:04:36.205Z,11.65
2023-03-11T01:07:39.938Z,10.30
2023-03-11T01:10:43.697Z,10.80
2023-03-11T01:13:47.082Z,10.90
2023-03-11T01:16:51.181Z,10.93
2023-03-11T01:19:54.755Z,9.90
2023-03-11T01:23:00.284Z,10.00
2023-03-11T01:26:04.976Z,11.25
2023-03-11T01:29:08.453Z,9.77
2023-03-11T01:32:12.871Z,11.33
2023-03-11T01:35:18.959Z,10.18
2023-03-11T01:38:23.268Z,11.18
2023-03-11T01:41:26.673Z,10.50
2023-03-11T01:44:30.190Z,10.30
2023-03-11T01:47:37.772Z,11.83
2023-03-11T01:50:49.930Z,11.15
2023-03-11T01:53:56.173Z,10.68
2023-03-11T01:57:01.401Z,12.25
2023-03-11T02:00:07.645Z,13.03
2023-03-11T02:03:22.612Z,11.70
2023-03-11T02:06:26.927Z,12.98
2023-03-11T02:09:31.336Z,11.80
2023-03-11T02:12:37.414Z,11.18
2023-03-11T02:15:41.570Z,11.37
2023-03-11T02:18:45.191Z,12.00
2023-03-11T02:21:49.581Z,12.77
2023-03-11T02:25:14.493Z,13.13
2023-03-11T02:28:20.737Z,13.90
2023-03-11T02:31:25.615Z,11.63
2023-03-11T02:34:33.707Z,12.67
2023-03-11T02:37:37.732Z,15.18
2023-03-11T02:40:52.060Z,12.93
2023-03-11T02:44:00.119Z,15.30
2023-03-11T02:47:04.106Z,13.50
2023-03-11T02:50:11.246Z,15.17
2023-03-11T02:53:15.622Z,16.05
2023-03-11T02:56:19.318Z,15.02
2023-03-11T02:59:22.841Z,14.88
2023-03-11T03:02:26.294Z,14.60
2023-03-11T03:05:30.489Z,14.10
2023-03-11T03:08:35.346Z,15.55
2023-03-11T03:11:38.905Z,14.75
2023-03-11T03:14:42.461Z,15.52
2023-03-11T03:17:47.377Z,15.43
2023-03-11T03:20:52.128Z,16.37
2023-03-11T03:23:55.806Z,16.52
2023-03-11T03:26:59.290Z,16.38
2023-03-11T03:30:02.929Z,17.75
2023-03-11T03:33:07.345Z,17.53
2023-03-11T03:36:13.693Z,16.13
2023-03-11T03:39:20.232Z,14.38
2023-03-11T03:42:28.216Z,16.33
2023-03-11T03:45:31.962Z,16.13
2023-03-11T03:48:35.730Z,18.13
2023-03-11T03:51:42.122Z,18.17
2023-03-11T03:55:15.313Z,17.05
2023-03-11T03:58:19.044Z,18.13
2023-03-11T04:01:22.778Z,19.45
2023-03-11T04:04:27.110Z,19.50
2023-03-11T04:07:31.138Z,19.43
2023-03-11T04:10:34.557Z,19.90
2023-03-11T04:13:38.930Z,20.23
2023-03-11T04:16:43.391Z,23.75
2023-03-11T04:19:48.804Z,23.33
2023-03-11T04:22:52.638Z,20.37
2023-03-11T04:26:00.981Z,19.15
2023-03-11T04:29:04.492Z,20.73
2023-03-11T04:32:13.764Z,23.42
2023-03-11T04:35:19.306Z,18.07
2023-03-11T04:38:22.836Z,20.80
2023-03-11T04:41:26.732Z,19.33
2023-03-11T04:44:30.925Z,23.08
2023-03-11T04:47:34.603Z,20.92
2023-03-11T04:50:41.014Z,21.97
2023-03-11T04:53:44.580Z,25.77
2023-03-11T04:56:48.196Z,24.00
2023-03-11T04:59:52.022Z,21.83
2023-03-11T05:02:56.177Z,24.02
2023-03-11T05:06:00.638Z,25.10
2023-03-11T05:09:04.859Z,24.17
2023-03-11T05:12:14.657Z,23.50
2023-03-11T05:15:22.577Z,23.45
2023-03-11T05:18:26.793Z,23.35
2023-03-11T05:21:30.585Z,24.33
2023-03-11T05:24:34.661Z,23.23
2023-03-11T05:27:38.483Z,25.25
2023-03-11T05:30:43.804Z,26.85
2023-03-11T05:33:47.579Z,20.67
2023-03-11T05:36:51.780Z,22.20
2023-03-11T05:39:55.597Z,18.53
2023-03-11T05:42:59.746Z,20.42
2023-03-11T05:46:05.830Z,19.48
2023-03-11T05:49:09.397Z,16.67
2023-03-11T05:52:13.286Z,16.40
2023-03-11T05:55:16.846Z,15.87
2023-03-11T05:58:22.223Z,18.75
2023-03-11T06:01:26.066Z,16.30
2023-03-11T06:04:29.724Z,14.23
2023-03-11T06:07:35.783Z,15.63
2023-03-11T06:10:40.569Z,13.83
2023-03-11T06:13:44.378Z,12.27
2023-03-11T06:16:48.168Z,11.15
2023-03-11T06:19:52.012Z,9.48
2023-03-11T06:22:55.659Z,7.80
2023-03-11T06:26:10.682Z,7.47
2023-03-11T06:29:16.914Z,6.05
2023-03-11T06:32:21.808Z,6.25
2023-03-11T06:35:25.836Z,5.70
2023-03-11T06:38:29.809Z,5.10
2023-03-11T06:41:36.463Z,6.07
2023-03-11T06:44:41.415Z,5.43
2023-03-11T06:47:45.386Z,4.93
2023-03-11T06:50:59.913Z,3.90
2023-03-11T06:54:05.859Z,6.47
2023-03-11T06:57:10.795Z,4.60
2023-03-11T07:00:16.484Z,4.32
2023-03-11T07:03:24.745Z,4.20
2023-03-11T07:06:29.272Z,4.35
2023-03-11T07:09:44.133Z,3.40
2023-03-11T07:12:50.341Z,2.43
2023-03-11T07:16:05.040Z,4.82
2023-03-11T07:19:09.655Z,3.22
2023-03-11T07:22:13.148Z,4.07
2023-03-11T07:25:16.917Z,4.40
2023-03-11T07:28:20.477Z,4.30
2023-03-11T07:31:27.153Z,5.80
2023-03-11T07:34:31.357Z,4.65
2023-03-11T07:37:34.816Z,3.28
2023-03-11T07:40:38.385Z,2.10
2023-03-11T07:43:43.259Z,3.47
2023-03-11T07:46:46.779Z,5.05
2023-03-11T07:49:50.276Z,6.15
2023-03-11T07:52:53.920Z,4.65
2023-03-11T07:55:59.232Z,3.73
2023-03-11T07:59:04.621Z,5.93
2023-03-11T08:02:09.808Z,3.85
2023-03-11T08:05:13.381Z,3.63
2023-03-11T08:08:17.022Z,3.90
2023-03-11T08:11:21.547Z,1.57
2023-03-11T08:14:24.994Z,4.30
2023-03-11T08:17:28.476Z,3.03
2023-03-11T08:20:32.308Z,2.00
2023-03-11T08:23:36.133Z,2.00
2023-03-11T08:26:40.428Z,1.20
2023-03-11T08:29:44.149Z,2.07
2023-03-11T08:32:47.724Z,1.88
2023-03-11T08:35:51.195Z,5.45
2023-03-11T08:38:54.703Z,2.55
2023-03-11T08:41:59.891Z,2.93
2023-03-11T08:45:03.347Z,4.87
2023-03-11T08:48:07.057Z,9.48
2023-03-11T08:51:12.184Z,3.55
2023-03-11T08:54:15.674Z,5.07
2023-03-11T08:57:19.055Z,3.03
2023-03-11T09:00:23.098Z,3.17
2023-03-11T09:03:26.718Z,2.80
2023-03-11T09:06:30.608Z,4.43
2023-03-11T09:09:34.264Z,3.05
2023-03-11T09:12:38.029Z,5.43
2023-03-11T09:15:41.616Z,5.77
2023-03-11T09:18:46.528Z,4.15
2023-03-11T09:21:50.185Z,5.82
2023-03-11T09:24:53.843Z,3.33
2023-03-11T09:27:57.290Z,2.00
2023-03-11T09:31:00.893Z,3.97
2023-03-11T09:34:04.454Z,7.13
2023-03-11T09:37:08.273Z,3.85
2023-03-11T09:40:18.473Z,3.90
2023-03-11T09:43:35.633Z,4.30
2023-03-11T09:46:59.985Z,13.40
2023-03-11T09:50:18.397Z,5.93
2023-03-11T09:53:46.357Z,4.88
2023-03-11T09:56:50.090Z,4.85
2023-03-11T09:59:54.769Z,4.50
2023-03-11T10:03:00.606Z,4.43
2023-03-11T10:06:07.566Z,3.58
2023-03-11T10:09:32.548Z,3.17
2023-03-11T10:12:41.976Z,3.42
2023-03-11T10:16:00.340Z,4.50
2023-03-11T10:19:29.048Z,6.50
2023-03-11T10:22:41.547Z,3.60
2023-03-11T10:26:09.492Z,2.28
2023-03-11T10:29:36.232Z,5.07
2023-03-11T10:33:14.877Z,3.37
2023-03-11T10:36:26.559Z,3.03
2023-03-11T10:39:31.430Z,3.47
2023-03-11T10:42:35.963Z,3.55
2023-03-11T10:45:44.864Z,3.65
2023-03-11T10:48:48.517Z,6.97
2023-03-11T10:51:54.182Z,4.13
2023-03-11T10:55:03.135Z,4.53
2023-03-11T10:58:15.005Z,5.88
2023-03-11T11:01:19.179Z,4.30
2023-03-11T11:04:41.286Z,3.47
2023-03-11T11:07:47.493Z,3.87
2023-03-11T11:10:53.060Z,3.92
2023-03-11T11:13:59.199Z,3.75
2023-03-11T11:17:02.779Z,29.50
2023-03-11T11:20:16.485Z,8.13
2023-03-11T11:23:35.803Z,5.33
2023-03-11T11:26:39.229Z,5.53
2023-03-11T11:29:43.261Z,3.45
2023-03-11T11:32:46.673Z,3.83
2023-03-11T11:35:56.666Z,5.93
2023-03-11T11:39:05.087Z,3.30
2023-03-11T11:42:13.809Z,3.67
2023-03-11T11:45:26.925Z,2.45
2023-03-11T11:48:50.801Z,2.95
2023-03-11T11:52:21.582Z,3.50
2023-03-11T11:55:30.736Z,2.87
2023-03-11T11:58:35.778Z,2.65
2023-03-11T12:02:19.932Z,2.38
2023-03-11T12:05:30.168Z,2.33
2023-03-11T12:08:54.545Z,3.33
2023-03-11T12:12:20.802Z,3.37
2023-03-11T12:15:49.817Z,2.58
2023-03-11T12:19:19.817Z,3.17
2023-03-11T12:22:33.096Z,4.03
2023-03-11T12:25:44.659Z,3.80
2023-03-11T12:29:08.074Z,2.10
2023-03-11T12:32:33.228Z,5.32
2023-03-11T12:35:37.194Z,3.33
2023-03-11T12:38:46.574Z,3.17
2023-03-11T12:42:10.327Z,3.33
2023-03-11T12:45:49.140Z,5.27
2023-03-11T12:49:15.165Z,2.45
2023-03-11T12:52:24.613Z,1.98
2023-03-11T12:55:33.756Z,2.65
2023-03-11T12:58:58.477Z,2.20
2023-03-11T13:02:04.788Z,2.50
2023-03-11T13:05:39.255Z,7.80
2023-03-11T13:08:55.030Z,3.33
2023-03-11T13:11:58.542Z,5.10
2023-03-11T13:15:26.637Z,7.00
2023-03-11T13:18:32.985Z,2.77
2023-03-11T13:21:41.386Z,3.97
2023-03-11T13:24:50.795Z,6.00
2023-03-11T13:28:06.610Z,5.18
2023-03-11T13:31:38.493Z,5.70
2023-03-11T13:34:59.841Z,4.73
2023-03-11T13:38:26.465Z,5.63
2023-03-11T13:41:37.573Z,5.40
2023-03-11T13:44:42.223Z,2.60
2023-03-11T13:47:49.688Z,6.60
2023-03-11T13:51:25.321Z,3.30
2023-03-11T13:54:28.721Z,2.33
2023-03-11T13:57:37.337Z,4.85
2023-03-11T14:01:14.801Z,15.60
2023-03-11T14:04:29.353Z,55.17
2023-03-11T14:07:35.608Z,89.40
2023-03-11T14:10:51.333Z,20.80
2023-03-11T14:13:55.569Z,61.58
2023-03-11T14:17:01.640Z,16.48
2023-03-11T14:20:18.410Z,8.53
2023-03-11T14:23:29.101Z,3.03
2023-03-11T14:26:35.319Z,9.15
2023-03-11T14:29:43.907Z,10.95
2023-03-11T14:33:01.312Z,2.45
2023-03-11T14:36:12.316Z,3.30
2023-03-11T14:39:38.932Z,3.05
2023-03-11T14:42:43.792Z,5.30
2023-03-11T14:45:49.839Z,4.72
2023-03-11T14:48:55.278Z,4.28
2023-03-11T14:52:07.912Z,5.17
2023-03-11T14:55:25.658Z,6.97
2023-03-11T14:58:34.610Z,6.60
2023-03-11T15:01:42.712Z,7.10
2023-03-11T15:04:47.110Z,11.93
2023-03-11T15:07:56.548Z,6.83
2023-03-11T15:11:06.878Z,12.25
2023-03-11T15:14:33.167Z,7.85
2023-03-11T15:17:43.624Z,7.32
2023-03-11T15:21:00.889Z,8.75
2023-03-11T15:24:07.085Z,10.23
2023-03-11T15:27:34.264Z,10.55
2023-03-11T15:30:38.225Z,9.32
2023-03-11T15:33:42.612Z,6.25
2023-03-11T15:36:48.885Z,8.43
2023-03-11T15:39:53.440Z,10.90
2023-03-11T15:43:15.341Z,10.57
2023-03-11T15:46:18.753Z,13.02
2023-03-11T15:49:22.801Z,12.43
2023-03-11T15:52:26.664Z,17.80
2023-03-11T15:55:30.081Z,29.50
2023-03-11T15:58:33.726Z,15.60
2023-03-11T16:01:37.411Z,21.05
2023-03-11T16:04:41.929Z,16.02
2023-03-11T16:07:46.947Z,17.45
2023-03-11T16:10:50.654Z,19.73
2023-03-11T16:13:54.133Z,22.85
2023-03-11T16:16:57.605Z,14.27
2023-03-11T16:20:01.062Z,11.93
2023-03-11T16:23:07.585Z,11.93
2023-03-11T16:26:12.398Z,11.83
2023-03-11T16:29:19.756Z,11.88
2023-03-11T16:32:23.674Z,9.52
2023-03-11T16:35:28.123Z,10.95
2023-03-11T16:38:41.393Z,25.88
2023-03-11T16:41:45.913Z,37.20
2023-03-11T16:44:49.463Z,22.98
2023-03-11T16:47:52.953Z,16.10
2023-03-11T16:50:56.486Z,21.25
2023-03-11T16:54:00.492Z,21.00
2023-03-11T16:57:04.155Z,17.70
2023-03-11T17:00:09.950Z,22.40
2023-03-11T17:03:15.972Z,13.75
2023-03-11T17:06:21.382Z,16.20
2023-03-11T17:09:25.169Z,11.93
2023-03-11T17:12:29.308Z,10.87
2023-03-11T17:15:34.745Z,13.73
2023-03-11T17:18:38.419Z,14.35
2023-03-11T17:21:42.122Z,35.20
2023-03-11T17:24:45.876Z,47.95
2023-03-11T17:27:50.093Z,29.73
2023-03-11T17:30:53.960Z,14.60
2023-03-11T17:33:59.402Z,12.55
2023-03-11T17:37:02.913Z,12.65
2023-03-11T17:40:07.225Z,9.32
2023-03-11T17:43:11.020Z,5.37
2023-03-11T17:46:17.494Z,5.47
2023-03-11T17:49:23.040Z,5.30
2023-03-11T17:52:28.398Z,6.57
2023-03-11T17:55:33.009Z,6.22
2023-03-11T17:58:37.025Z,7.80
2023-03-11T18:01:40.769Z,8.02
2023-03-11T18:04:46.140Z,7.53
2023-03-11T18:07:49.928Z,7.22
2023-03-11T18:10:59.751Z,6.15
2023-03-11T18:14:03.677Z,6.23
2023-03-11T18:17:07.099Z,5.80
2023-03-11T18:20:13.775Z,5.82
2023-03-11T18:23:17.643Z,4.95
2023-03-11T18:26:21.931Z,4.13
2023-03-11T18:29:25.913Z,6.07
2023-03-11T18:32:29.887Z,5.18
2023-03-11T18:35:33.656Z,5.32
2023-03-11T18:38:37.467Z,4.78
2023-03-11T18:41:42.283Z,4.45
2023-03-11T18:44:45.903Z,8.50
2023-03-11T18:47:49.597Z,3.88
2023-03-11T18:50:56.996Z,4.90
2023-03-11T18:54:01.036Z,9.60
2023-03-11T18:57:04.760Z,6.97
2023-03-11T19:00:09.406Z,8.00
2023-03-11T19:03:13.051Z,6.28
2023-03-11T19:06:17.188Z,4.25
2023-03-11T19:09:20.735Z,7.63
2023-03-11T19:12:24.436Z,4.40
2023-03-11T19:15:28.148Z,5.55
2023-03-11T19:18:31.932Z,3.88
2023-03-11T19:21:35.672Z,4.60
2023-03-11T19:24:39.135Z,4.78
2023-03-11T19:27:42.839Z,3.43
2023-03-11T19:30:50.510Z,4.18
2023-03-11T19:33:54.343Z,5.05
2023-03-11T19:36:58.731Z,3.72
2023-03-11T19:40:02.285Z,3.40
2023-03-11T19:43:06.163Z,3.53
2023-03-11T19:46:13.777Z,3.65
2023-03-11T19:49:17.350Z,5.38
2023-03-11T19:52:22.741Z,4.53
2023-03-11T19:55:26.557Z,4.70
2023-03-11T19:58:31.056Z,3.88
2023-03-11T20:01:35.291Z,4.22
2023-03-11T20:04:41.161Z,4.70
2023-03-11T20:07:46.253Z,4.35
2023-03-11T20:10:52.288Z,4.10
2023-03-11T20:13:56.555Z,3.85
2023-03-11T20:17:00.195Z,5.47
2023-03-11T20:20:03.894Z,3.90
2023-03-11T20:23:07.723Z,4.50
2023-03-11T20:26:17.072Z,5.65
2023-03-11T20:29:20.808Z,3.63
2023-03-11T20:32:24.409Z,6.30
2023-03-11T20:35:28.466Z,4.93
2023-03-11T20:38:32.374Z,4.30
2023-03-11T20:41:38.317Z,3.78
2023-03-11T20:44:42.801Z,4.10
2023-03-11T20:47:46.502Z,3.58
2023-03-11T20:50:50.313Z,5.38
2023-03-11T20:53:54.875Z,6.03
2023-03-11T20:56:58.338Z,5.47
2023-03-11T21:00:02.027Z,2.70
2023-03-11T21:03:05.560Z,5.10
2023-03-11T21:06:18.082Z,4.90
2023-03-11T21:09:22.037Z,4.63
2023-03-11T21:12:28.271Z,4.97
2023-03-11T21:15:34.802Z,5.45
2023-03-11T21:18:39.049Z,4.18
2023-03-11T21:21:44.675Z,6.40
2023-03-11T21:24:55.566Z,6.85
2023-03-11T21:27:59.248Z,6.68
2023-03-11T21:31:08.180Z,5.63
2023-03-11T21:34:12.114Z,9.33
2023-03-11T21:37:15.921Z,6.88
2023-03-11T21:40:19.748Z,6.72
2023-03-11T21:43:23.541Z,6.63
2023-03-11T21:46:30.525Z,5.00
2023-03-11T21:49:34.890Z,5.43
2023-03-11T21:52:38.393Z,5.80
2023-03-11T21:55:43.535Z,5.30
2023-03-11T21:58:47.717Z,5.68
2023-03-11T22:01:51.630Z,5.47
2023-03-11T22:04:55.401Z,4.50
2023-03-11T22:07:58.894Z,4.25
2023-03-11T22:11:03.620Z,5.25
2023-03-11T22:14:07.172Z,5.90
2023-03-11T22:17:10.737Z,5.10
2023-03-11T22:20:14.266Z,4.15
2023-03-11T22:23:18.564Z,4.25
2023-03-11T22:26:21.902Z,4.63
2023-03-11T22:29:25.297Z,4.60
2023-03-11T22:32:28.719Z,5.40
2023-03-11T22:35:32.171Z,6.68
2023-03-11T22:38:37.089Z,3.70
2023-03-11T22:41:40.966Z,5.20
2023-03-11T22:44:44.239Z,5.28
2023-03-11T22:47:48.058Z,5.10
2023-03-11T22:50:52.185Z,5.40
2023-03-11T22:53:55.607Z,3.75
2023-03-11T22:56:59.045Z,3.80
2023-03-11T23:00:02.559Z,3.67
2023-03-11T23:03:06.469Z,4.83
2023-03-11T23:06:12.556Z,4.97
2023-03-11T23:09:16.020Z,4.80
2023-03-11T23:12:19.519Z,4.63
2023-03-11T23:15:22.989Z,5.50
2023-03-11T23:18:26.477Z,4.95
2023-03-11T23:21:33.117Z,4.65
2023-03-11T23:24:37.038Z,4.10
2023-03-11T23:27:42.602Z,5.40
2023-03-11T23:30:46.377Z,4.75
2023-03-11T23:33:50.385Z,5.18
2023-03-11T23:36:53.813Z,4.47
2023-03-11T23:39:57.343Z,5.50
2023-03-11T23:43:01.461Z,5.97
2023-03-11T23:46:06.291Z,4.35
2023-03-11T23:49:09.940Z,4.63
2023-03-11T23:52:13.300Z,3.15
2023-03-11T23:55:16.683Z,3.25
2023-03-11T23:58:21.075Z,3.63
